createdAt,value
2022-11-06T00:06:23.308Z,1018.43
2022-11-06T00:16:23.345Z,1018.43
2022-11-06T00:26:23.651Z,1018.34
2022-11-06T00:36:23.667Z,1018.38
2022-11-06T00:46:24.009Z,1018.45
2022-11-06T00:56:24.035Z,1018.52
2022-11-06T01:06:24.272Z,1018.43
2022-11-06T01:16:24.528Z,1018.33
2022-11-06T01:26:37.632Z,1018.15
2022-11-06T01:36:25.829Z,1018.04
2022-11-06T01:46:25.151Z,1018.11
2022-11-06T01:56:25.172Z,1017.87
2022-11-06T02:06:25.505Z,1017.64
2022-11-06T02:16:25.517Z,1017.58
2022-11-06T02:26:25.850Z,1017.51
2022-11-06T02:36:25.883Z,1017.60
2022-11-06T02:46:26.189Z,1017.66
2022-11-06T02:56:26.237Z,1017.54
2022-11-06T03:06:26.551Z,1017.41
2022-11-06T03:16:26.573Z,1017.33
2022-11-06T03:26:26.902Z,1017.15
2022-11-06T03:36:29.060Z,1017.05
2022-11-06T03:46:27.152Z,1017.08
2022-11-06T03:56:27.194Z,1017.05
2022-11-06T04:06:29.239Z,1016.94
2022-11-06T04:16:27.477Z,1016.87
2022-11-06T04:26:28.977Z,1016.98
2022-11-06T04:36:30.234Z,1017.05
2022-11-06T04:46:28.203Z,1016.86
2022-11-06T04:56:29.409Z,1016.86
2022-11-06T05:06:30.122Z,1016.70
2022-11-06T05:16:28.674Z,1016.73
2022-11-06T05:26:29.008Z,1016.81
2022-11-06T05:36:29.047Z,1016.66
2022-11-06T05:46:47.815Z,1016.48
2022-11-06T05:56:30.424Z,1016.35
2022-11-06T06:06:29.812Z,1016.25
2022-11-06T06:16:29.762Z,1016.24
2022-11-06T06:26:29.997Z,1016.29
2022-11-06T06:36:30.225Z,1016.23
2022-11-06T06:46:30.456Z,1016.21
2022-11-06T06:56:30.682Z,1016.11
2022-11-06T07:06:31.053Z,1016.16
2022-11-06T07:16:31.106Z,1016.08
2022-11-06T07:26:31.404Z,1016.10
2022-11-06T07:36:31.425Z,1015.98
2022-11-06T07:46:31.759Z,1015.86
2022-11-06T07:56:31.780Z,1015.47
2022-11-06T08:06:32.110Z,1015.33
2022-11-06T08:16:32.137Z,1015.08
2022-11-06T08:26:32.451Z,1014.89
2022-11-06T08:36:32.489Z,1014.56
2022-11-06T08:46:33.797Z,1014.35
2022-11-06T08:56:32.820Z,1014.01
2022-11-06T09:06:33.152Z,1013.91
2022-11-06T09:16:33.185Z,1013.83
2022-11-06T09:26:33.291Z,1013.65
2022-11-06T09:36:33.350Z,1013.53
2022-11-06T09:46:33.645Z,1013.43
2022-11-06T09:56:33.668Z,1013.36
2022-11-06T10:06:34.056Z,1013.34
2022-11-06T10:16:34.167Z,1013.22
2022-11-06T10:26:34.478Z,1013.06
2022-11-06T10:36:36.234Z,1012.92
2022-11-06T10:46:34.594Z,1012.90
2022-11-06T10:56:34.642Z,1012.82
2022-11-06T11:06:34.952Z,1012.58
2022-11-06T11:16:35.132Z,1012.36
2022-11-06T11:26:35.189Z,1012.50
2022-11-06T11:36:35.409Z,1012.37
2022-11-06T11:46:35.747Z,1012.26
2022-11-06T11:57:02.984Z,1012.15
2022-11-06T12:06:37.234Z,1011.95
2022-11-06T12:16:36.385Z,1011.89
2022-11-06T12:26:36.505Z,1011.81
2022-11-06T12:36:36.748Z,1011.67
2022-11-06T12:46:36.647Z,1011.58
2022-11-06T12:56:37.156Z,1011.46
2022-11-06T13:06:37.191Z,1011.45
2022-11-06T13:16:37.323Z,1011.34
2022-11-06T13:26:37.367Z,1011.25
2022-11-06T13:36:37.907Z,1011.19
2022-11-06T13:46:37.800Z,1011.12
2022-11-06T13:56:38.161Z,1011.14
2022-11-06T14:06:38.195Z,1011.39
2022-11-06T14:16:38.678Z,1011.42
2022-11-06T14:26:38.514Z,1011.50
2022-11-06T14:36:38.831Z,1011.67
2022-11-06T14:46:38.904Z,1011.76
2022-11-06T14:56:39.415Z,1011.75
2022-11-06T15:06:39.342Z,1011.83
2022-11-06T15:16:39.621Z,1011.84
2022-11-06T15:26:39.796Z,1011.97
2022-11-06T15:36:39.960Z,1011.91
2022-11-06T15:46:40.040Z,1011.96
2022-11-06T15:56:40.218Z,1011.86
2022-11-06T16:06:40.402Z,1012.07
2022-11-06T16:16:40.817Z,1012.13
2022-11-06T16:26:40.732Z,1012.22
2022-11-06T16:36:41.090Z,1012.47
2022-11-06T16:46:41.309Z,1012.44
2022-11-06T16:56:41.718Z,1012.39
2022-11-06T17:06:42.168Z,1012.36
2022-11-06T17:16:42.171Z,1012.58
2022-11-06T17:26:42.324Z,1012.74
2022-11-06T17:36:43.900Z,1012.74
2022-11-06T17:46:42.821Z,1012.83
2022-11-06T17:56:42.988Z,1012.85
2022-11-06T18:06:43.763Z,1012.91
2022-11-06T18:16:44.134Z,1013.01
2022-11-06T18:26:42.981Z,1013.08
2022-11-06T18:36:43.561Z,1013.25
2022-11-06T18:46:43.519Z,1013.35
2022-11-06T18:56:44.628Z,1013.26
2022-11-06T19:06:44.142Z,1013.40
2022-11-06T19:16:44.125Z,1013.30
2022-11-06T19:26:44.328Z,1013.56
2022-11-06T19:36:44.266Z,1013.62
2022-11-06T19:46:44.521Z,1013.85
2022-11-06T19:57:27.640Z,1013.88
2022-11-06T20:06:46.188Z,1013.98
2022-11-06T20:16:45.374Z,1014.07
2022-11-06T20:26:45.614Z,1014.29
2022-11-06T20:36:46.592Z,1014.17
2022-11-06T20:46:47.929Z,1014.48
2022-11-06T20:56:47.150Z,1014.54
2022-11-06T21:06:46.309Z,1014.76
2022-11-06T21:16:46.413Z,1014.64
2022-11-06T21:26:46.401Z,1014.70
2022-11-06T21:36:46.421Z,1014.63
2022-11-06T21:46:46.951Z,1014.94
2022-11-06T21:56:46.843Z,1014.79
2022-11-06T22:06:47.096Z,1015.05
2022-11-06T22:16:47.184Z,1014.97
2022-11-06T22:26:47.457Z,1014.98
2022-11-06T22:36:47.495Z,1014.87
2022-11-06T22:46:47.801Z,1014.93
2022-11-06T22:56:47.861Z,1014.99
2022-11-06T23:06:48.152Z,1015.07
2022-11-06T23:16:48.176Z,1014.87
2022-11-06T23:26:48.508Z,1014.88
2022-11-06T23:36:48.672Z,1014.85
2022-11-06T23:46:48.951Z,1014.97
2022-11-06T23:56:48.968Z,1015.09
